Time;durP1;ratioP1;P1;durP2;ratioP2;P2;SDS_P1;SDS_P2;PMS_P1;PMS_P2;Temp;Humidity;BMP_temperature;BMP_pressure;BME280_temperature;BME280_humidity;BME280_pressure;Samples;Min_cycle;Max_cycle;Signal;HPM_P1;HPM_P2
2023/03/05 00:01:48;;;;;;;2.50;0.90;;;0.30;99.90;;;;;;20908721;28;20087;-66
2023/03/05 00:11:49;;;;;;;1.83;1.05;;;0.30;99.90;;;;;;20908207;28;20041;-67
2023/03/05 00:21:51;;;;;;;3.08;1.00;;;0.10;99.90;;;;;;20907821;28;20466;-66
2023/03/05 00:31:53;;;;;;;3.63;1.30;;;0.30;99.90;;;;;;20907470;28;20047;-65
2023/03/05 00:41:55;;;;;;;3.08;1.33;;;0.30;99.90;;;;;;20906891;28;20037;-59
2023/03/05 00:51:57;;;;;;;5.40;2.45;;;0.40;99.80;;;;;;20905688;28;20432;-60
2023/03/05 01:01:58;;;;;;;6.72;2.95;;;0.20;99.90;;;;;;20903742;28;20064;-60
2023/03/05 01:12:00;;;;;;;5.10;2.35;;;0.30;99.90;;;;;;20902957;28;20048;-59
2023/03/05 01:22:02;;;;;;;3.72;1.90;;;0.30;99.90;;;;;;20902425;28;20087;-66
2023/03/05 01:32:03;;;;;;;3.58;1.48;;;0.40;99.90;;;;;;20903505;28;20037;-67
2023/03/05 01:42:05;;;;;;;3.15;0.90;;;0.50;99.90;;;;;;20902639;28;20044;-59
2023/03/05 01:52:18;;;;;;;3.67;0.90;;;0.30;99.90;;;;;;20885352;28;20433;-66
2023/03/05 02:02:23;;;;;;;2.42;0.75;;;0.20;99.90;;;;;;20901893;28;20044;-66
2023/03/05 02:12:25;;;;;;;3.08;0.90;;;0.30;99.40;;;;;;20901385;28;20041;-59
2023/03/05 02:22:27;;;;;;;1.95;0.80;;;0.70;97.30;;;;;;20908987;28;20098;-66
2023/03/05 02:32:28;;;;;;;3.35;0.77;;;1.20;96.00;;;;;;20916614;28;20551;-66
2023/03/05 02:42:32;;;;;;;3.05;0.85;;;1.30;95.10;;;;;;20914510;28;20106;-59
2023/03/05 02:52:35;;;;;;;1.80;0.77;;;1.10;96.40;;;;;;20897116;28;20037;-67
2023/03/05 03:02:38;;;;;;;1.77;0.63;;;1.00;95.60;;;;;;20896636;28;20037;-59
2023/03/05 03:12:42;;;;;;;2.63;0.90;;;1.20;95.40;;;;;;20912346;28;20166;-59
2023/03/05 03:22:45;;;;;;;1.45;0.70;;;1.20;94.60;;;;;;20912610;28;20037;-59
2023/03/05 03:32:46;;;;;;;2.25;0.98;;;1.10;94.50;;;;;;20909922;28;20033;-59
2023/03/05 03:42:51;;;;;;;1.85;0.88;;;1.00;94.70;;;;;;20910120;28;20044;-58
2023/03/05 03:52:52;;;;;;;2.95;1.70;;;0.70;96.30;;;;;;20909914;28;20033;-66
2023/03/05 04:02:54;;;;;;;5.53;1.58;;;0.40;97.90;;;;;;20909857;28;20032;-67
2023/03/05 04:12:55;;;;;;;2.97;1.45;;;0.30;98.10;;;;;;20890997;28;20110;-66
2023/03/05 04:22:57;;;;;;;2.90;1.40;;;0.50;96.80;;;;;;20907719;28;20103;-66
2023/03/05 04:32:59;;;;;;;2.90;1.40;;;1.10;97.30;;;;;;20907527;28;20048;-59
2023/03/05 04:43:00;;;;;;;3.05;1.20;;;0.70;96.70;;;;;;20906045;28;20040;-59
2023/03/05 04:53:03;;;;;;;3.95;1.50;;;0.50;96.90;;;;;;20905674;28;20074;-66
2023/03/05 05:03:04;;;;;;;3.28;1.30;;;0.40;97.30;;;;;;20905129;28;20039;-63
2023/03/05 05:13:06;;;;;;;6.13;1.60;;;0.50;96.50;;;;;;20904103;28;20048;-59
2023/03/05 05:23:08;;;;;;;2.78;1.30;;;0.20;98.30;;;;;;20903631;28;20572;-59
2023/03/05 05:33:09;;;;;;;4.28;1.48;;;-0.20;99.30;;;;;;20903378;28;20037;-66
2023/03/05 05:43:11;;;;;;;1.85;0.90;;;-0.50;99.80;;;;;;20901516;28;20045;-66
2023/03/05 05:53:12;;;;;;;3.67;1.17;;;-0.70;98.90;;;;;;20903658;28;20036;-59
2023/03/05 06:03:14;;;;;;;2.72;1.00;;;-0.80;99.60;;;;;;20919150;28;20028;-58
2023/03/05 06:13:16;;;;;;;4.13;0.98;;;-0.80;99.40;;;;;;20917466;28;20037;-59
2023/03/05 06:23:17;;;;;;;6.00;1.20;;;-0.60;98.90;;;;;;20917570;28;20041;-59
2023/03/05 06:33:19;;;;;;;2.28;1.00;;;-0.50;99.40;;;;;;20917268;28;20037;-66
2023/03/05 06:43:21;;;;;;;1.90;1.02;;;-0.40;99.10;;;;;;20914807;28;20041;-59
2023/03/05 06:53:24;;;;;;;2.72;1.00;;;-0.20;99.10;;;;;;20915709;28;20524;-59
2023/03/05 07:03:25;;;;;;;1.83;0.80;;;0.10;97.30;;;;;;20913256;28;20052;-59
2023/03/05 07:13:28;;;;;;;2.50;0.93;;;0.60;97.30;;;;;;20914086;28;20068;-65
2023/03/05 07:23:30;;;;;;;1.98;0.88;;;0.70;97.20;;;;;;20912057;28;20082;-65
2023/03/05 07:33:33;;;;;;;4.30;1.38;;;1.20;97.30;;;;;;20912481;28;20482;-64
2023/03/05 07:43:35;;;;;;;4.28;2.30;;;1.80;97.60;;;;;;20911336;28;20033;-64
2023/03/05 07:53:37;;;;;;;4.38;2.17;;;3.00;98.60;;;;;;20910794;28;20443;-58
2023/03/05 08:03:39;;;;;;;3.85;1.98;;;4.30;95.20;;;;;;20911152;28;20367;-57
2023/03/05 08:13:43;;;;;;;4.00;2.00;;;5.70;94.20;;;;;;20907820;28;20065;-57
2023/03/05 08:23:45;;;;;;;5.80;2.80;;;6.50;90.90;;;;;;20905986;28;20040;-58
2023/03/05 08:33:48;;;;;;;6.22;3.13;;;7.20;88.50;;;;;;20907328;28;20029;-65
2023/03/05 08:43:49;;;;;;;5.85;3.42;;;7.70;88.00;;;;;;20906139;28;20063;-65
2023/03/05 08:53:52;;;;;;;4.65;2.42;;;7.80;87.80;;;;;;20905635;28;20037;-64
2023/03/05 09:03:54;;;;;;;6.22;2.80;;;8.10;84.40;;;;;;20905258;28;20033;-56
2023/03/05 09:13:56;;;;;;;5.30;2.90;;;8.20;82.60;;;;;;20903965;28;20122;-62
2023/03/05 09:23:59;;;;;;;6.68;3.22;;;8.80;82.80;;;;;;20903462;28;20436;-65
2023/03/05 09:34:01;;;;;;;12.20;7.43;;;9.30;84.70;;;;;;20902079;28;20391;-59
2023/03/05 09:44:44;;;;;;;17.70;10.27;;;9.60;90.40;;;;;;20884868;28;20029;-59
2023/03/05 09:54:53;;;;;;;24.35;12.25;;;10.00;91.90;;;;;;20902191;28;20033;-65
2023/03/05 10:05:11;;;;;;;22.10;13.68;;;10.00;93.20;;;;;;20900729;28;20033;-59
2023/03/05 10:15:14;;;;;;;21.98;13.02;;;10.20;94.30;;;;;;20899482;28;20056;-64
2023/03/05 10:25:32;;;;;;;26.52;16.67;;;10.50;93.90;;;;;;20900819;28;20033;-64
2023/03/05 10:36:00;;;;;;;27.27;17.45;;;10.80;95.20;;;;;;20901863;28;20037;-59
2023/03/05 10:46:04;;;;;;;29.42;17.58;;;11.00;93.30;;;;;;20912891;28;20055;-63
2023/03/05 10:56:05;;;;;;;29.13;17.52;;;11.20;95.00;;;;;;20914906;28;20036;-64
2023/03/05 11:06:11;;;;;;;25.85;17.40;;;11.90;94.40;;;;;;20913059;28;20051;-58
2023/03/05 11:16:19;;;;;;;28.63;17.50;;;12.30;94.20;;;;;;20913124;28;20041;-55
2023/03/05 11:26:22;;;;;;;25.63;16.38;;;12.30;94.40;;;;;;20912385;28;20040;-57
2023/03/05 11:36:26;;;;;;;25.80;17.60;;;12.70;93.90;;;;;;20912924;28;20413;-64
2023/03/05 11:46:29;;;;;;;32.35;20.67;;;12.40;94.50;;;;;;20911317;28;20029;-56
2023/03/05 11:56:35;;;;;;;34.58;22.10;;;12.20;94.40;;;;;;20909064;28;20056;-61
2023/03/05 12:06:47;;;;;;;38.53;24.40;;;12.40;94.60;;;;;;20907264;28;20070;-51
2023/03/05 12:17:12;;;;;;;39.20;25.10;;;12.80;96.40;;;;;;20908826;28;20118;-59
2023/03/05 12:27:30;;;;;;;38.53;26.58;;;13.70;95.70;;;;;;20907889;28;20029;-54
2023/03/05 12:37:31;;;;;;;39.20;26.00;;;13.70;94.80;;;;;;20907249;28;20387;-54
2023/03/05 12:47:33;;;;;;;32.90;23.00;;;13.40;94.00;;;;;;20906687;28;20331;-61
2023/03/05 12:57:36;;;;;;;34.83;21.98;;;12.90;93.80;;;;;;20905651;28;20043;-56
2023/03/05 13:07:38;;;;;;;35.45;23.48;;;11.80;95.60;;;;;;20904315;28;20079;-64
2023/03/05 13:17:59;;;;;;;37.90;23.38;;;11.40;96.20;;;;;;20904155;28;20086;-65
2023/03/05 13:28:10;;;;;;;38.30;24.75;;;11.10;97.40;;;;;;20902859;28;20032;-65
2023/03/05 13:38:21;;;;;;;40.00;26.20;;;11.00;96.50;;;;;;20901219;28;20052;-66
2023/03/05 13:48:26;;;;;;;37.80;25.90;;;10.10;98.10;;;;;;20902698;28;20071;-57
2023/03/05 13:58:56;;;;;;;38.58;24.88;;;9.50;98.80;;;;;;20902078;28;20309;-59
2023/03/05 14:09:07;;;;;;;39.00;24.15;;;9.10;99.60;;;;;;20901776;28;20033;-68
2023/03/05 14:19:33;;;;;;;44.40;27.77;;;9.10;99.10;;;;;;20912595;28;20052;-59
2023/03/05 14:29:36;;;;;;;43.25;27.23;;;9.00;99.90;;;;;;20916088;28;20036;-59
2023/03/05 14:39:59;;;;;;;45.17;26.55;;;8.60;99.90;;;;;;20915075;28;20033;-66
2023/03/05 14:50:01;;;;;;;38.88;22.52;;;8.40;99.90;;;;;;20915823;28;20086;-65
2023/03/05 15:00:03;;;;;;;40.67;23.50;;;7.90;99.90;;;;;;20914915;28;20482;-59
2023/03/05 15:10:07;;;;;;;40.05;23.83;;;7.80;99.90;;;;;;20913812;28;20484;-66
2023/03/05 15:20:18;;;;;;;40.35;25.00;;;7.90;99.90;;;;;;20913560;28;20110;-66
2023/03/05 15:30:30;;;;;;;43.00;24.30;;;7.40;99.90;;;;;;20912428;28;20033;-66
2023/03/05 15:40:32;;;;;;;42.88;23.90;;;6.90;99.90;;;;;;20911547;28;20044;-66
2023/03/05 15:50:34;;;;;;;39.83;23.92;;;6.60;99.90;;;;;;20909755;28;20074;-66
2023/03/05 16:00:36;;;;;;;43.17;25.02;;;6.50;99.90;;;;;;20909924;28;20059;-59
2023/03/05 16:10:39;;;;;;;42.60;24.63;;;6.30;99.90;;;;;;20908937;28;20048;-59
2023/03/05 16:20:41;;;;;;;43.28;25.08;;;6.00;99.90;;;;;;20908685;28;20040;-59
2023/03/05 16:30:43;;;;;;;44.28;24.40;;;5.80;99.90;;;;;;20908925;28;20029;-66
2023/03/05 16:40:45;;;;;;;43.78;25.25;;;5.40;99.90;;;;;;20906476;28;20033;-66
2023/03/05 16:50:46;;;;;;;50.13;27.38;;;5.10;99.90;;;;;;20906290;28;20036;-66
2023/03/05 17:00:48;;;;;;;49.22;26.73;;;4.70;99.90;;;;;;20904134;28;20090;-66
2023/03/05 17:10:50;;;;;;;50.47;26.30;;;4.30;99.90;;;;;;20902837;28;20103;-66
2023/03/05 17:20:52;;;;;;;52.83;26.95;;;3.80;99.90;;;;;;20903998;28;20033;-66
2023/03/05 17:30:55;;;;;;;54.22;25.75;;;2.90;99.90;;;;;;20902075;28;20040;-57
2023/03/05 17:40:57;;;;;;;57.10;27.88;;;2.20;99.90;;;;;;20913027;28;20036;-57
2023/03/05 17:50:59;;;;;;;64.43;28.45;;;1.60;99.90;;;;;;20925015;28;20047;-66
2023/03/05 18:01:01;;;;;;;64.65;29.40;;;1.20;99.90;;;;;;20899664;28;20032;-67
2023/03/05 18:11:03;;;;;;;54.60;27.80;;;1.00;99.90;;;;;;20907986;28;20045;-58
2023/03/05 18:21:05;;;;;;;66.50;31.13;;;1.00;99.90;;;;;;20937096;28;20028;-65
2023/03/05 18:31:07;;;;;;;66.90;31.52;;;1.40;99.90;;;;;;20897531;28;20114;-59
2023/03/05 18:41:23;;;;;;;63.13;30.33;;;1.50;99.90;;;;;;20896662;28;20036;-59
2023/03/05 18:51:27;;;;;;;94.75;43.30;;;1.20;99.90;;;;;;20901086;28;20548;-66
2023/03/05 19:01:30;;;;;;;73.65;35.55;;;1.10;99.90;;;;;;20940377;28;20539;-57
2023/03/05 19:11:31;;;;;;;93.97;42.70;;;1.50;99.90;;;;;;20910388;28;20402;-65
2023/03/05 19:21:33;;;;;;;105.28;47.35;;;1.80;99.90;;;;;;20909789;28;20467;-64
2023/03/05 19:31:36;;;;;;;109.07;49.00;;;2.20;99.90;;;;;;20949629;28;20498;-57
2023/03/05 19:41:38;;;;;;;130.95;55.90;;;2.20;99.90;;;;;;20911380;28;20090;-57
2023/03/05 19:51:42;;;;;;;130.98;56.60;;;2.10;99.90;;;;;;20912377;28;20033;-56
2023/03/05 20:01:44;;;;;;;114.18;52.40;;;2.30;99.90;;;;;;20919632;28;20039;-65
2023/03/05 20:11:49;;;;;;;118.93;51.97;;;2.10;99.90;;;;;;20945743;28;20455;-57
2023/03/05 20:21:51;;;;;;;138.25;58.20;;;1.90;99.90;;;;;;20961687;28;20112;-57
2023/03/05 20:31:55;;;;;;;137.13;59.83;;;1.90;99.90;;;;;;20957149;28;20078;-56
2023/03/05 20:41:57;;;;;;;113.28;55.30;;;2.10;99.90;;;;;;20928362;28;20102;-64
2023/03/05 20:51:59;;;;;;;121.70;53.60;;;2.00;99.90;;;;;;20902590;28;20032;-64
2023/03/05 21:02:01;;;;;;;147.43;61.38;;;1.70;99.90;;;;;;20957024;28;20028;-64
2023/03/05 21:12:03;;;;;;;124.10;54.80;;;1.90;99.90;;;;;;20945467;28;20456;-57
2023/03/05 21:22:05;;;;;;;133.18;57.33;;;2.00;99.90;;;;;;20952280;28;20052;-56
2023/03/05 21:32:08;;;;;;;122.57;53.38;;;2.20;99.90;;;;;;20957724;28;20152;-64
2023/03/05 21:42:11;;;;;;;110.00;52.72;;;2.40;99.90;;;;;;20932369;28;20040;-57
2023/03/05 21:52:12;;;;;;;95.95;45.85;;;2.70;99.90;;;;;;20902876;28;20501;-57
2023/03/05 22:02:16;;;;;;;91.88;45.72;;;2.70;99.90;;;;;;20902610;28;20086;-57
2023/03/05 22:12:55;;;;;;;92.68;44.22;;;2.80;99.90;;;;;;20900188;28;20045;-58
2023/03/05 22:23:00;;;;;;;78.95;39.45;;;2.90;99.90;;;;;;20901292;28;20094;-58
2023/03/05 22:33:02;;;;;;;77.35;37.10;;;2.90;99.90;;;;;;20901286;28;20041;-64
2023/03/05 22:43:04;;;;;;;60.13;31.40;;;3.00;99.90;;;;;;20915647;28;20037;-64
2023/03/05 22:53:06;;;;;;;57.63;28.95;;;3.00;99.90;;;;;;20915845;28;20075;-57
2023/03/05 23:03:07;;;;;;;56.58;28.83;;;2.90;99.90;;;;;;20913829;28;20033;-58
2023/03/05 23:13:09;;;;;;;55.92;25.83;;;2.80;99.90;;;;;;20912689;28;20110;-56
2023/03/05 23:23:11;;;;;;;45.47;24.02;;;2.70;99.90;;;;;;20911945;28;20037;-57
2023/03/05 23:33:21;;;;;;;44.22;20.13;;;2.70;99.90;;;;;;20911543;28;20091;-64
2023/03/05 23:43:24;;;;;;;27.90;13.87;;;2.70;99.90;;;;;;20910747;28;20033;-64
2023/03/05 23:53:28;;;;;;;40.05;18.35;;;2.50;99.90;;;;;;20909881;28;20132;-57
